Anzahl Datensätze: 50
min. Temperatur: 2.1 °C
max. Temperatur: 4.3 °C
max. Windgeschwindigkeit: 37.1 km/h
Niederschlagsumme: 4.8 mm
| Datum |
Zeit |
Temp °C |
Feuchte % |
Taupunkt °C |
Luftdruck hPa |
Wind km/h |
Windrichtung |
Strahlung w/m² |
Niederschlag mm |
|---|---|---|---|---|---|---|---|---|---|
| 12.03.2026 | 00:00 | 4.1 | 94 | 3.2 | 1021.5 | 1.4 | W | 0 | 4.8 |
| 12.03.2026 | 00:10 | 4.0 | 94 | 3.1 | 1021.5 | 0.0 | W | 0 | 0.0 |
| 12.03.2026 | 00:20 | 3.9 | 94 | 3.0 | 1021.6 | 0.0 | SW | 0 | 0.0 |
| 12.03.2026 | 00:30 | 3.7 | 94 | 2.8 | 1021.7 | 1.4 | WSW | 0 | 0.0 |
| 12.03.2026 | 00:40 | 3.7 | 94 | 2.8 | 1021.9 | 1.4 | W | 0 | 0.0 |
| 12.03.2026 | 00:50 | 3.4 | 94 | 2.5 | 1022.0 | 0.0 | S | 0 | 0.0 |
| 12.03.2026 | 01:00 | 3.4 | 94 | 2.5 | 1022.0 | 1.4 | SW | 0 | 0.0 |
| 12.03.2026 | 01:10 | 3.4 | 94 | 2.5 | 1022.0 | 0.0 | SW | 0 | 0.0 |
| 12.03.2026 | 01:20 | 3.3 | 95 | 2.6 | 1022.0 | 0.0 | S | 0 | 0.0 |
| 12.03.2026 | 01:30 | 3.1 | 94 | 2.2 | 1022.0 | 0.0 | WSW | 0 | 0.0 |
| 12.03.2026 | 01:40 | 3.0 | 95 | 2.3 | 1022.2 | 0.0 | SW | 0 | 0.0 |
| 12.03.2026 | 01:50 | 2.9 | 95 | 2.2 | 1022.4 | 0.0 | WSW | 0 | 0.0 |
| 12.03.2026 | 02:00 | 2.9 | 95 | 2.2 | 1022.5 | 0.0 | SW | 0 | 0.0 |
| 12.03.2026 | 02:10 | 2.7 | 95 | 2.0 | 1022.4 | 0.0 | WSW | 0 | 0.0 |
| 12.03.2026 | 02:20 | 2.8 | 95 | 2.1 | 1022.5 | 0.0 | WSW | 0 | 0.0 |
| 12.03.2026 | 02:30 | 2.7 | 95 | 2.0 | 1022.6 | 0.0 | WSW | 0 | 0.0 |
| 12.03.2026 | 02:40 | 2.7 | 95 | 2.0 | 1022.6 | 0.0 | SW | 0 | 0.0 |
| 12.03.2026 | 02:50 | 2.6 | 95 | 1.9 | 1022.7 | 0.0 | SSW | 0 | 0.0 |
| 12.03.2026 | 03:00 | 2.3 | 95 | 1.6 | 1022.8 | 0.0 | SW | 0 | 0.0 |
| 12.03.2026 | 03:10 | 2.4 | 95 | 1.7 | 1022.8 | 0.0 | W | 0 | 0.0 |
| 12.03.2026 | 03:20 | 2.3 | 95 | 1.6 | 1023.0 | 0.0 | WSW | 0 | 0.0 |
| 12.03.2026 | 03:30 | 2.1 | 95 | 1.4 | 1023.2 | 0.0 | WSW | 0 | 0.0 |
| 12.03.2026 | 03:40 | 2.2 | 96 | 1.6 | 1023.3 | 1.4 | WSW | 0 | 0.0 |
| 12.03.2026 | 03:50 | 2.7 | 96 | 2.1 | 1023.5 | 3.2 | W | 0 | 0.0 |
| 12.03.2026 | 04:00 | 2.9 | 96 | 2.3 | 1023.6 | 3.2 | WSW | 0 | 0.0 |
| 12.03.2026 | 04:10 | 3.1 | 96 | 2.5 | 1023.5 | 3.2 | SW | 0 | 0.0 |
| 12.03.2026 | 04:20 | 3.3 | 96 | 2.7 | 1023.6 | 4.7 | W | 0 | 0.0 |
| 12.03.2026 | 04:30 | 3.4 | 96 | 2.8 | 1023.7 | 4.7 | WSW | 0 | 0.0 |
| 12.03.2026 | 04:40 | 3.4 | 96 | 2.8 | 1023.7 | 3.2 | SW | 0 | 0.0 |
| 12.03.2026 | 04:50 | 3.6 | 96 | 3.0 | 1023.7 | 1.4 | WSW | 0 | 0.0 |
| 12.03.2026 | 05:00 | 3.6 | 96 | 3.0 | 1023.7 | 0.0 | WSW | 0 | 0.0 |
| 12.03.2026 | 05:10 | 3.6 | 96 | 3.0 | 1023.8 | 3.2 | SSW | 0 | 0.0 |
| 12.03.2026 | 05:20 | 3.6 | 96 | 3.0 | 1023.8 | 1.4 | SW | 0 | 0.0 |
| 12.03.2026 | 05:30 | 3.6 | 95 | 2.9 | 1023.7 | 0.0 | WSW | 0 | 0.0 |
| 12.03.2026 | 05:40 | 3.7 | 95 | 3.0 | 1023.8 | 1.4 | WSW | 0 | 0.0 |
| 12.03.2026 | 05:50 | 3.7 | 95 | 3.0 | 1023.8 | 1.4 | WSW | 0 | 0.0 |
| 12.03.2026 | 06:00 | 3.7 | 95 | 3.0 | 1023.9 | 1.4 | SSW | 0 | 0.0 |
| 12.03.2026 | 06:10 | 3.8 | 95 | 3.1 | 1023.7 | 1.4 | SO | 0 | 0.0 |
| 12.03.2026 | 06:20 | 3.8 | 95 | 3.1 | 1023.7 | 1.4 | SW | 0 | 0.0 |
| 12.03.2026 | 06:30 | 3.8 | 95 | 3.1 | 1023.8 | 0.0 | SW | 0 | 0.0 |
| 12.03.2026 | 06:40 | 3.9 | 95 | 3.2 | 1023.9 | 3.2 | SSW | 0 | 0.0 |
| 12.03.2026 | 06:50 | 3.9 | 94 | 3.0 | 1023.9 | 0.0 | SSW | 0 | 0.0 |
| 12.03.2026 | 07:00 | 3.9 | 94 | 3.0 | 1023.9 | 0.0 | SW | 0 | 0.0 |
| 12.03.2026 | 07:10 | 3.8 | 94 | 2.9 | 1024.0 | 1.4 | SSW | 5 | 0.0 |
| 12.03.2026 | 07:20 | 3.8 | 93 | 2.8 | 1024.0 | 0.0 | SW | 9 | 0.0 |
| 12.03.2026 | 07:30 | 3.9 | 93 | 2.9 | 1024.1 | 0.0 | SSW | 16 | 0.0 |
| 12.03.2026 | 07:40 | 3.9 | 93 | 2.9 | 1024.2 | 0.0 | W | 26 | 0.0 |
| 12.03.2026 | 07:50 | 4.1 | 93 | 3.1 | 1024.2 | 3.2 | SSW | 37 | 0.0 |
| 12.03.2026 | 08:00 | 4.2 | 93 | 3.2 | 1024.3 | 0.0 | SW | 46 | 0.0 |
| 12.03.2026 | 08:10 | 4.3 | 92 | 3.1 | 1024.5 | 0.0 | S | 54 | 0.0 |